sensor_id;sensor_type;location;lat;lon;timestamp;temperature;humidity
71382;DHT22;60099;45.660;13.804;2022-09-27T00:01:38;17.80;99.90
71382;DHT22;60099;45.660;13.804;2022-09-27T00:04:03;17.80;99.90
71382;DHT22;60099;45.660;13.804;2022-09-27T00:06:30;17.80;99.90
71382;DHT22;60099;45.660;13.804;2022-09-27T00:08:57;17.80;99.90
71382;DHT22;60099;45.660;13.804;2022-09-27T00:11:25;17.80;99.90
71382;DHT22;60099;45.660;13.804;2022-09-27T00:13:52;17.80;99.60
71382;DHT22;60099;45.660;13.804;2022-09-27T00:16:20;17.80;99.10
71382;DHT22;60099;45.660;13.804;2022-09-27T00:18:46;17.80;99.70
71382;DHT22;60099;45.660;13.804;2022-09-27T00:21:12;17.80;99.90
71382;DHT22;60099;45.660;13.804;2022-09-27T00:23:39;17.80;99.90
71382;DHT22;60099;45.660;13.804;2022-09-27T00:26:05;17.80;99.90
71382;DHT22;60099;45.660;13.804;2022-09-27T00:28:32;17.80;99.90
71382;DHT22;60099;45.660;13.804;2022-09-27T00:31:13;17.80;99.80
71382;DHT22;60099;45.660;13.804;2022-09-27T00:33:41;17.70;99.90
71382;DHT22;60099;45.660;13.804;2022-09-27T00:36:09;17.70;99.90
71382;DHT22;60099;45.660;13.804;2022-09-27T00:38:39;17.80;99.90
71382;DHT22;60099;45.660;13.804;2022-09-27T00:41:05;17.80;99.30
71382;DHT22;60099;45.660;13.804;2022-09-27T00:43:52;17.30;99.90
71382;DHT22;60099;45.660;13.804;2022-09-27T00:46:32;16.80;99.90
71382;DHT22;60099;45.660;13.804;2022-09-27T00:49:04;16.60;99.90
71382;DHT22;60099;45.660;13.804;2022-09-27T00:51:33;16.10;99.90
71382;DHT22;60099;45.660;13.804;2022-09-27T00:54:03;15.80;99.90
71382;DHT22;60099;45.660;13.804;2022-09-27T00:56:30;15.80;99.90
71382;DHT22;60099;45.660;13.804;2022-09-27T00:59:10;15.80;99.90
71382;DHT22;60099;45.660;13.804;2022-09-27T01:01:37;15.80;99.90
71382;DHT22;60099;45.660;13.804;2022-09-27T01:04:07;15.80;99.90
71382;DHT22;60099;45.660;13.804;2022-09-27T01:06:33;15.80;99.90
71382;DHT22;60099;45.660;13.804;2022-09-27T01:08:59;15.90;99.90
71382;DHT22;60099;45.660;13.804;2022-09-27T01:11:39;15.80;99.90
71382;DHT22;60099;45.660;13.804;2022-09-27T01:28:59;15.80;99.90
71382;DHT22;60099;45.660;13.804;2022-09-27T01:36:53;15.80;99.90
71382;DHT22;60099;45.660;13.804;2022-09-27T01:42:19;15.90;99.90
71382;DHT22;60099;45.660;13.804;2022-09-27T01:48:00;15.80;99.90
71382;DHT22;60099;45.660;13.804;2022-09-27T01:50:38;15.70;99.90
71382;DHT22;60099;45.660;13.804;2022-09-27T01:53:18;15.80;99.90
71382;DHT22;60099;45.660;13.804;2022-09-27T01:55:46;15.90;99.90
71382;DHT22;60099;45.660;13.804;2022-09-27T01:58:27;16.00;99.90
71382;DHT22;60099;45.660;13.804;2022-09-27T02:00:55;15.90;99.90
71382;DHT22;60099;45.660;13.804;2022-09-27T02:03:29;15.90;99.90
71382;DHT22;60099;45.660;13.804;2022-09-27T02:06:00;15.90;99.90
71382;DHT22;60099;45.660;13.804;2022-09-27T02:11:13;15.80;99.90
71382;DHT22;60099;45.660;13.804;2022-09-27T02:13:47;15.80;99.90
71382;DHT22;60099;45.660;13.804;2022-09-27T02:16:47;15.70;99.90
71382;DHT22;60099;45.660;13.804;2022-09-27T02:19:31;15.70;99.90
71382;DHT22;60099;45.660;13.804;2022-09-27T02:22:14;15.60;99.90
71382;DHT22;60099;45.660;13.804;2022-09-27T02:24:49;15.60;99.90
71382;DHT22;60099;45.660;13.804;2022-09-27T02:27:23;15.70;99.90
71382;DHT22;60099;45.660;13.804;2022-09-27T02:30:04;15.60;99.90
71382;DHT22;60099;45.660;13.804;2022-09-27T02:32:31;15.60;99.90
71382;DHT22;60099;45.660;13.804;2022-09-27T02:35:00;15.70;99.90
71382;DHT22;60099;45.660;13.804;2022-09-27T02:37:26;15.70;99.90
71382;DHT22;60099;45.660;13.804;2022-09-27T02:39:52;15.80;99.90
71382;DHT22;60099;45.660;13.804;2022-09-27T02:42:18;15.90;99.90
71382;DHT22;60099;45.660;13.804;2022-09-27T02:44:44;15.80;99.90
71382;DHT22;60099;45.660;13.804;2022-09-27T03:04:16;15.40;99.90
71382;DHT22;60099;45.660;13.804;2022-09-27T03:06:47;15.30;99.90
71382;DHT22;60099;45.660;13.804;2022-09-27T03:09:21;15.40;99.90
71382;DHT22;60099;45.660;13.804;2022-09-27T03:11:47;15.50;99.90
71382;DHT22;60099;45.660;13.804;2022-09-27T03:14:13;15.40;99.90
71382;DHT22;60099;45.660;13.804;2022-09-27T03:16:39;15.50;99.90
71382;DHT22;60099;45.660;13.804;2022-09-27T03:19:05;15.30;99.90
71382;DHT22;60099;45.660;13.804;2022-09-27T03:21:31;15.20;99.90
71382;DHT22;60099;45.660;13.804;2022-09-27T03:23:57;15.20;99.90
71382;DHT22;60099;45.660;13.804;2022-09-27T03:26:23;15.10;99.90
71382;DHT22;60099;45.660;13.804;2022-09-27T03:28:48;15.10;99.90
71382;DHT22;60099;45.660;13.804;2022-09-27T03:31:21;15.10;99.90
71382;DHT22;60099;45.660;13.804;2022-09-27T03:33:47;15.20;99.90
71382;DHT22;60099;45.660;13.804;2022-09-27T03:36:13;15.20;99.90
71382;DHT22;60099;45.660;13.804;2022-09-27T03:38:39;15.20;99.90
71382;DHT22;60099;45.660;13.804;2022-09-27T03:41:05;15.20;99.90
71382;DHT22;60099;45.660;13.804;2022-09-27T03:43:30;15.20;99.90
71382;DHT22;60099;45.660;13.804;2022-09-27T03:45:56;15.10;99.90
71382;DHT22;60099;45.660;13.804;2022-09-27T03:48:22;15.20;99.90
71382;DHT22;60099;45.660;13.804;2022-09-27T03:50:50;15.20;99.90
71382;DHT22;60099;45.660;13.804;2022-09-27T03:53:15;15.30;99.90
71382;DHT22;60099;45.660;13.804;2022-09-27T03:55:44;15.30;99.90
71382;DHT22;60099;45.660;13.804;2022-09-27T03:58:10;15.30;99.90
71382;DHT22;60099;45.660;13.804;2022-09-27T04:00:36;15.40;99.90
71382;DHT22;60099;45.660;13.804;2022-09-27T04:03:01;15.40;99.90
71382;DHT22;60099;45.660;13.804;2022-09-27T04:05:28;15.40;99.90
71382;DHT22;60099;45.660;13.804;2022-09-27T04:07:53;15.50;99.90
71382;DHT22;60099;45.660;13.804;2022-09-27T04:10:19;15.50;99.90
71382;DHT22;60099;45.660;13.804;2022-09-27T04:12:46;15.50;99.90
71382;DHT22;60099;45.660;13.804;2022-09-27T04:15:12;15.50;99.90
71382;DHT22;60099;45.660;13.804;2022-09-27T04:17:40;15.50;99.90
71382;DHT22;60099;45.660;13.804;2022-09-27T04:20:07;15.50;99.90
71382;DHT22;60099;45.660;13.804;2022-09-27T04:22:33;15.60;99.90
71382;DHT22;60099;45.660;13.804;2022-09-27T04:24:58;15.60;99.90
71382;DHT22;60099;45.660;13.804;2022-09-27T04:27:24;15.60;99.90
71382;DHT22;60099;45.660;13.804;2022-09-27T04:29:50;15.70;99.90
71382;DHT22;60099;45.660;13.804;2022-09-27T04:32:15;15.80;99.90
71382;DHT22;60099;45.660;13.804;2022-09-27T04:34:41;15.80;99.90
71382;DHT22;60099;45.660;13.804;2022-09-27T04:37:26;15.90;99.90
71382;DHT22;60099;45.660;13.804;2022-09-27T04:39:52;15.90;99.90
71382;DHT22;60099;45.660;13.804;2022-09-27T04:42:17;15.90;99.90
71382;DHT22;60099;45.660;13.804;2022-09-27T04:44:44;15.80;99.90
71382;DHT22;60099;45.660;13.804;2022-09-27T04:47:09;15.80;99.90
71382;DHT22;60099;45.660;13.804;2022-09-27T04:49:35;15.80;99.90
71382;DHT22;60099;45.660;13.804;2022-09-27T04:52:02;15.80;99.90
71382;DHT22;60099;45.660;13.804;2022-09-27T04:54:27;15.80;99.90
71382;DHT22;60099;45.660;13.804;2022-09-27T04:56:54;15.80;99.90
71382;DHT22;60099;45.660;13.804;2022-09-27T04:59:20;15.80;99.90
71382;DHT22;60099;45.660;13.804;2022-09-27T05:01:46;15.80;99.90
71382;DHT22;60099;45.660;13.804;2022-09-27T05:04:11;15.80;99.90
71382;DHT22;60099;45.660;13.804;2022-09-27T05:06:37;15.80;99.90
71382;DHT22;60099;45.660;13.804;2022-09-27T05:09:03;15.80;99.90
71382;DHT22;60099;45.660;13.804;2022-09-27T05:11:29;15.80;99.90
71382;DHT22;60099;45.660;13.804;2022-09-27T05:13:54;15.80;99.90
71382;DHT22;60099;45.660;13.804;2022-09-27T05:16:20;15.80;99.90
71382;DHT22;60099;45.660;13.804;2022-09-27T05:18:46;15.90;99.90
71382;DHT22;60099;45.660;13.804;2022-09-27T05:21:11;15.90;99.90
71382;DHT22;60099;45.660;13.804;2022-09-27T05:23:38;16.00;99.90
71382;DHT22;60099;45.660;13.804;2022-09-27T05:26:04;15.90;99.90
71382;DHT22;60099;45.660;13.804;2022-09-27T05:28:31;15.90;99.90
71382;DHT22;60099;45.660;13.804;2022-09-27T05:30:56;15.90;99.90
71382;DHT22;60099;45.660;13.804;2022-09-27T05:33:23;15.90;99.90
71382;DHT22;60099;45.660;13.804;2022-09-27T05:35:53;15.90;99.90
71382;DHT22;60099;45.660;13.804;2022-09-27T05:38:19;15.90;99.90
71382;DHT22;60099;45.660;13.804;2022-09-27T05:40:46;15.90;99.90
71382;DHT22;60099;45.660;13.804;2022-09-27T05:43:15;16.00;99.90
71382;DHT22;60099;45.660;13.804;2022-09-27T05:45:41;16.00;99.90
71382;DHT22;60099;45.660;13.804;2022-09-27T05:48:08;16.10;99.90
71382;DHT22;60099;45.660;13.804;2022-09-27T05:50:34;16.20;99.90
71382;DHT22;60099;45.660;13.804;2022-09-27T05:53:02;16.20;99.90
71382;DHT22;60099;45.660;13.804;2022-09-27T05:55:27;16.30;99.90
71382;DHT22;60099;45.660;13.804;2022-09-27T05:57:56;16.30;99.90
71382;DHT22;60099;45.660;13.804;2022-09-27T06:00:22;16.30;99.90
71382;DHT22;60099;45.660;13.804;2022-09-27T06:02:57;16.40;99.90
71382;DHT22;60099;45.660;13.804;2022-09-27T06:05:24;16.40;99.90
71382;DHT22;60099;45.660;13.804;2022-09-27T06:07:52;16.40;99.90
71382;DHT22;60099;45.660;13.804;2022-09-27T06:10:22;16.40;99.90
71382;DHT22;60099;45.660;13.804;2022-09-27T06:12:48;16.40;99.90
71382;DHT22;60099;45.660;13.804;2022-09-27T06:15:14;16.40;99.90
71382;DHT22;60099;45.660;13.804;2022-09-27T06:17:40;16.40;99.90
71382;DHT22;60099;45.660;13.804;2022-09-27T06:20:06;16.40;99.90
71382;DHT22;60099;45.660;13.804;2022-09-27T06:22:33;16.40;99.90
71382;DHT22;60099;45.660;13.804;2022-09-27T06:25:00;16.40;99.90
71382;DHT22;60099;45.660;13.804;2022-09-27T06:27:26;16.40;99.90
71382;DHT22;60099;45.660;13.804;2022-09-27T06:29:52;16.50;99.90
71382;DHT22;60099;45.660;13.804;2022-09-27T06:32:17;16.60;99.90
71382;DHT22;60099;45.660;13.804;2022-09-27T06:34:44;16.70;99.90
71382;DHT22;60099;45.660;13.804;2022-09-27T06:37:09;16.80;99.90
71382;DHT22;60099;45.660;13.804;2022-09-27T06:39:36;16.80;99.90
71382;DHT22;60099;45.660;13.804;2022-09-27T06:42:02;16.90;99.90
71382;DHT22;60099;45.660;13.804;2022-09-27T06:44:28;17.00;99.90
71382;DHT22;60099;45.660;13.804;2022-09-27T06:46:54;17.10;99.90
71382;DHT22;60099;45.660;13.804;2022-09-27T06:49:20;17.10;99.90
71382;DHT22;60099;45.660;13.804;2022-09-27T06:51:50;17.10;99.90
71382;DHT22;60099;45.660;13.804;2022-09-27T06:54:17;17.10;99.90
71382;DHT22;60099;45.660;13.804;2022-09-27T06:56:45;17.20;99.90
71382;DHT22;60099;45.660;13.804;2022-09-27T06:59:11;17.20;99.90
71382;DHT22;60099;45.660;13.804;2022-09-27T07:01:56;17.20;99.90
71382;DHT22;60099;45.660;13.804;2022-09-27T07:04:22;17.30;99.90
71382;DHT22;60099;45.660;13.804;2022-09-27T07:06:49;17.30;99.90
71382;DHT22;60099;45.660;13.804;2022-09-27T07:09:15;17.30;99.90
71382;DHT22;60099;45.660;13.804;2022-09-27T07:11:41;17.30;99.90
71382;DHT22;60099;45.660;13.804;2022-09-27T07:14:10;17.40;99.90
71382;DHT22;60099;45.660;13.804;2022-09-27T07:16:36;17.40;99.90
71382;DHT22;60099;45.660;13.804;2022-09-27T07:19:08;17.40;99.90
71382;DHT22;60099;45.660;13.804;2022-09-27T07:21:36;17.40;99.90
71382;DHT22;60099;45.660;13.804;2022-09-27T07:24:02;17.40;99.90
71382;DHT22;60099;45.660;13.804;2022-09-27T07:26:28;17.40;99.90
71382;DHT22;60099;45.660;13.804;2022-09-27T07:28:54;17.50;99.90
71382;DHT22;60099;45.660;13.804;2022-09-27T07:31:21;17.50;99.90
71382;DHT22;60099;45.660;13.804;2022-09-27T07:33:47;17.50;99.90
71382;DHT22;60099;45.660;13.804;2022-09-27T07:36:13;17.60;99.90
71382;DHT22;60099;45.660;13.804;2022-09-27T07:38:39;17.60;99.90
71382;DHT22;60099;45.660;13.804;2022-09-27T07:41:06;17.70;99.90
71382;DHT22;60099;45.660;13.804;2022-09-27T07:43:32;17.70;99.90
71382;DHT22;60099;45.660;13.804;2022-09-27T07:45:58;17.80;99.90
71382;DHT22;60099;45.660;13.804;2022-09-27T07:48:24;17.90;99.90
71382;DHT22;60099;45.660;13.804;2022-09-27T07:50:51;17.90;99.90
71382;DHT22;60099;45.660;13.804;2022-09-27T07:53:17;18.00;99.90
71382;DHT22;60099;45.660;13.804;2022-09-27T07:55:42;18.00;99.90
71382;DHT22;60099;45.660;13.804;2022-09-27T07:58:11;18.10;99.90
71382;DHT22;60099;45.660;13.804;2022-09-27T08:00:38;18.20;99.90
71382;DHT22;60099;45.660;13.804;2022-09-27T08:03:11;18.30;99.90
71382;DHT22;60099;45.660;13.804;2022-09-27T08:05:45;18.40;99.90
71382;DHT22;60099;45.660;13.804;2022-09-27T08:08:12;18.50;99.90
71382;DHT22;60099;45.660;13.804;2022-09-27T08:10:39;18.60;99.90
71382;DHT22;60099;45.660;13.804;2022-09-27T08:13:09;18.60;99.90
71382;DHT22;60099;45.660;13.804;2022-09-27T08:15:35;18.70;99.30
71382;DHT22;60099;45.660;13.804;2022-09-27T08:18:04;18.80;99.90
71382;DHT22;60099;45.660;13.804;2022-09-27T08:20:30;18.80;99.90
71382;DHT22;60099;45.660;13.804;2022-09-27T08:22:56;18.90;99.00
71382;DHT22;60099;45.660;13.804;2022-09-27T08:25:22;19.00;99.10
71382;DHT22;60099;45.660;13.804;2022-09-27T08:27:59;19.00;99.90
71382;DHT22;60099;45.660;13.804;2022-09-27T08:30:26;19.00;99.30
71382;DHT22;60099;45.660;13.804;2022-09-27T08:32:57;19.00;99.70
71382;DHT22;60099;45.660;13.804;2022-09-27T08:35:24;19.00;99.90
71382;DHT22;60099;45.660;13.804;2022-09-27T08:37:57;18.90;99.30
71382;DHT22;60099;45.660;13.804;2022-09-27T08:48:42;18.90;99.40
71382;DHT22;60099;45.660;13.804;2022-09-27T08:51:11;18.90;99.60
71382;DHT22;60099;45.660;13.804;2022-09-27T08:54:05;19.00;99.90
71382;DHT22;60099;45.660;13.804;2022-09-27T08:56:32;19.10;99.90
71382;DHT22;60099;45.660;13.804;2022-09-27T08:59:09;19.10;99.90
71382;DHT22;60099;45.660;13.804;2022-09-27T09:01:37;19.30;99.30
71382;DHT22;60099;45.660;13.804;2022-09-27T09:04:03;19.40;98.70
71382;DHT22;60099;45.660;13.804;2022-09-27T09:35:30;19.70;99.10
71382;DHT22;60099;45.660;13.804;2022-09-27T09:38:02;19.70;99.30
71382;DHT22;60099;45.660;13.804;2022-09-27T09:43:01;19.90;99.60
71382;DHT22;60099;45.660;13.804;2022-09-27T09:45:35;19.90;99.40
71382;DHT22;60099;45.660;13.804;2022-09-27T09:50:53;20.00;98.80
71382;DHT22;60099;45.660;13.804;2022-09-27T09:56:19;20.30;97.10
71382;DHT22;60099;45.660;13.804;2022-09-27T09:58:54;20.30;96.40
71382;DHT22;60099;45.660;13.804;2022-09-27T10:01:34;20.30;95.20
71382;DHT22;60099;45.660;13.804;2022-09-27T10:04:00;20.30;95.20
71382;DHT22;60099;45.660;13.804;2022-09-27T10:06:27;20.20;95.10
71382;DHT22;60099;45.660;13.804;2022-09-27T10:08:54;20.20;95.00
71382;DHT22;60099;45.660;13.804;2022-09-27T10:11:28;20.20;94.80
71382;DHT22;60099;45.660;13.804;2022-09-27T10:13:56;20.20;95.40
71382;DHT22;60099;45.660;13.804;2022-09-27T10:16:22;20.30;94.70
71382;DHT22;60099;45.660;13.804;2022-09-27T10:18:50;20.40;95.40
71382;DHT22;60099;45.660;13.804;2022-09-27T10:21:27;20.50;93.30
71382;DHT22;60099;45.660;13.804;2022-09-27T10:24:12;20.50;92.60
71382;DHT22;60099;45.660;13.804;2022-09-27T10:26:39;20.70;93.20
71382;DHT22;60099;45.660;13.804;2022-09-27T10:29:21;20.80;93.90
71382;DHT22;60099;45.660;13.804;2022-09-27T10:31:48;20.90;94.00
71382;DHT22;60099;45.660;13.804;2022-09-27T10:34:36;21.00;93.90
71382;DHT22;60099;45.660;13.804;2022-09-27T10:39:38;21.30;90.60
71382;DHT22;60099;45.660;13.804;2022-09-27T10:42:33;21.40;90.40
71382;DHT22;60099;45.660;13.804;2022-09-27T10:45:35;21.50;89.90
71382;DHT22;60099;45.660;13.804;2022-09-27T10:48:01;21.60;88.90
71382;DHT22;60099;45.660;13.804;2022-09-27T10:50:31;21.70;88.30
71382;DHT22;60099;45.660;13.804;2022-09-27T10:53:14;21.80;86.60
71382;DHT22;60099;45.660;13.804;2022-09-27T10:55:41;21.90;85.10
71382;DHT22;60099;45.660;13.804;2022-09-27T10:58:27;21.90;88.30
71382;DHT22;60099;45.660;13.804;2022-09-27T11:01:02;21.90;84.00
71382;DHT22;60099;45.660;13.804;2022-09-27T11:03:35;21.90;88.30
71382;DHT22;60099;45.660;13.804;2022-09-27T11:08:53;22.20;86.90
71382;DHT22;60099;45.660;13.804;2022-09-27T11:11:23;22.20;86.50
71382;DHT22;60099;45.660;13.804;2022-09-27T11:14:01;22.30;85.10
71382;DHT22;60099;45.660;13.804;2022-09-27T11:28:32;21.80;85.50
71382;DHT22;60099;45.660;13.804;2022-09-27T11:45:19;21.20;88.90
71382;DHT22;60099;45.660;13.804;2022-09-27T11:56:03;20.90;90.10
71382;DHT22;60099;45.660;13.804;2022-09-27T12:01:36;21.40;88.80
71382;DHT22;60099;45.660;13.804;2022-09-27T12:10:08;21.80;85.00
71382;DHT22;60099;45.660;13.804;2022-09-27T12:12:38;21.70;84.90
71382;DHT22;60099;45.660;13.804;2022-09-27T12:18:26;21.50;85.50
71382;DHT22;60099;45.660;13.804;2022-09-27T12:20:54;21.40;84.80
71382;DHT22;60099;45.660;13.804;2022-09-27T12:24:05;21.30;85.00
71382;DHT22;60099;45.660;13.804;2022-09-27T12:26:19;21.10;84.80
71382;DHT22;60099;45.660;13.804;2022-09-27T12:39:53;20.90;87.90
71382;DHT22;60099;45.660;13.804;2022-09-27T12:42:41;20.80;87.20
71382;DHT22;60099;45.660;13.804;2022-09-27T12:45:14;20.70;89.70
71382;DHT22;60099;45.660;13.804;2022-09-27T12:52:53;21.00;87.30
71382;DHT22;60099;45.660;13.804;2022-09-27T12:55:46;21.00;87.20
71382;DHT22;60099;45.660;13.804;2022-09-27T13:01:02;21.10;86.10
71382;DHT22;60099;45.660;13.804;2022-09-27T13:06:22;21.50;83.70
71382;DHT22;60099;45.660;13.804;2022-09-27T13:09:20;21.70;83.40
71382;DHT22;60099;45.660;13.804;2022-09-27T13:14:41;22.00;82.30
71382;DHT22;60099;45.660;13.804;2022-09-27T13:22:53;22.60;78.60
71382;DHT22;60099;45.660;13.804;2022-09-27T13:25:51;22.50;77.20
71382;DHT22;60099;45.660;13.804;2022-09-27T13:31:08;22.40;78.20
71382;DHT22;60099;45.660;13.804;2022-09-27T13:33:41;22.20;77.50
71382;DHT22;60099;45.660;13.804;2022-09-27T13:47:12;21.80;82.00
71382;DHT22;60099;45.660;13.804;2022-09-27T13:49:43;21.80;81.00
71382;DHT22;60099;45.660;13.804;2022-09-27T13:54:54;21.40;83.80
71382;DHT22;60099;45.660;13.804;2022-09-27T13:57:46;21.20;85.00
71382;DHT22;60099;45.660;13.804;2022-09-27T14:00:20;21.00;87.40
71382;DHT22;60099;45.660;13.804;2022-09-27T14:05:30;20.80;87.20
71382;DHT22;60099;45.660;13.804;2022-09-27T14:07:58;20.80;89.40
71382;DHT22;60099;45.660;13.804;2022-09-27T14:10:26;20.80;88.30
71382;DHT22;60099;45.660;13.804;2022-09-27T14:12:52;20.80;89.10
71382;DHT22;60099;45.660;13.804;2022-09-27T14:15:22;20.70;90.10
71382;DHT22;60099;45.660;13.804;2022-09-27T14:17:49;20.80;90.60
71382;DHT22;60099;45.660;13.804;2022-09-27T14:20:44;20.80;88.80
71382;DHT22;60099;45.660;13.804;2022-09-27T14:23:24;20.90;88.10
71382;DHT22;60099;45.660;13.804;2022-09-27T14:25:52;20.90;87.90
71382;DHT22;60099;45.660;13.804;2022-09-27T14:31:03;20.80;87.20
71382;DHT22;60099;45.660;13.804;2022-09-27T14:33:31;20.90;87.60
71382;DHT22;60099;45.660;13.804;2022-09-27T14:35:59;20.80;89.70
71382;DHT22;60099;45.660;13.804;2022-09-27T14:38:44;20.70;89.90
71382;DHT22;60099;45.660;13.804;2022-09-27T14:41:10;20.60;90.90
71382;DHT22;60099;45.660;13.804;2022-09-27T14:43:42;20.50;90.60
71382;DHT22;60099;45.660;13.804;2022-09-27T14:46:27;20.40;91.50
71382;DHT22;60099;45.660;13.804;2022-09-27T14:48:53;20.40;91.80
71382;DHT22;60099;45.660;13.804;2022-09-27T14:51:31;20.30;91.70
71382;DHT22;60099;45.660;13.804;2022-09-27T14:53:59;20.40;91.60
71382;DHT22;60099;45.660;13.804;2022-09-27T14:56:33;20.40;91.50
71382;DHT22;60099;45.660;13.804;2022-09-27T14:59:09;20.50;92.10
71382;DHT22;60099;45.660;13.804;2022-09-27T15:01:35;20.50;88.30
71382;DHT22;60099;45.660;13.804;2022-09-27T15:04:05;20.40;88.40
71382;DHT22;60099;45.660;13.804;2022-09-27T15:06:34;20.40;88.20
71382;DHT22;60099;45.660;13.804;2022-09-27T15:09:02;20.50;86.60
71382;DHT22;60099;45.660;13.804;2022-09-27T15:11:28;20.50;87.80
71382;DHT22;60099;45.660;13.804;2022-09-27T15:13:57;20.50;88.30
71382;DHT22;60099;45.660;13.804;2022-09-27T15:16:26;20.60;90.10
71382;DHT22;60099;45.660;13.804;2022-09-27T15:19:12;20.40;89.80
71382;DHT22;60099;45.660;13.804;2022-09-27T15:21:39;20.40;91.40
71382;DHT22;60099;45.660;13.804;2022-09-27T15:24:46;20.30;91.70
71382;DHT22;60099;45.660;13.804;2022-09-27T15:27:15;20.30;92.20
71382;DHT22;60099;45.660;13.804;2022-09-27T15:29:51;20.20;92.90
71382;DHT22;60099;45.660;13.804;2022-09-27T15:32:20;20.20;92.60
71382;DHT22;60099;45.660;13.804;2022-09-27T15:34:53;20.10;92.80
71382;DHT22;60099;45.660;13.804;2022-09-27T15:37:35;20.10;93.20
71382;DHT22;60099;45.660;13.804;2022-09-27T15:42:57;20.10;94.00
71382;DHT22;60099;45.660;13.804;2022-09-27T15:45:34;20.00;94.10
71382;DHT22;60099;45.660;13.804;2022-09-27T15:50:38;20.00;94.30
71382;DHT22;60099;45.660;13.804;2022-09-27T15:53:06;19.90;93.70
71382;DHT22;60099;45.660;13.804;2022-09-27T15:55:33;19.90;93.80
71382;DHT22;60099;45.660;13.804;2022-09-27T15:58:05;19.90;93.80
71382;DHT22;60099;45.660;13.804;2022-09-27T16:00:33;19.90;93.20
71382;DHT22;60099;45.660;13.804;2022-09-27T16:03:00;19.90;92.70
71382;DHT22;60099;45.660;13.804;2022-09-27T16:05:26;19.90;94.50
71382;DHT22;60099;45.660;13.804;2022-09-27T16:07:54;19.70;95.40
71382;DHT22;60099;45.660;13.804;2022-09-27T16:10:35;19.50;95.10
71382;DHT22;60099;45.660;13.804;2022-09-27T16:13:02;19.40;95.40
71382;DHT22;60099;45.660;13.804;2022-09-27T16:15:27;19.40;96.50
71382;DHT22;60099;45.660;13.804;2022-09-27T16:17:53;19.40;96.60
71382;DHT22;60099;45.660;13.804;2022-09-27T16:20:22;19.30;96.70
71382;DHT22;60099;45.660;13.804;2022-09-27T16:22:50;19.30;95.70
71382;DHT22;60099;45.660;13.804;2022-09-27T16:25:16;19.20;96.20
71382;DHT22;60099;45.660;13.804;2022-09-27T16:27:42;19.20;95.10
71382;DHT22;60099;45.660;13.804;2022-09-27T16:30:08;19.10;95.10
71382;DHT22;60099;45.660;13.804;2022-09-27T16:32:39;19.00;95.50
71382;DHT22;60099;45.660;13.804;2022-09-27T16:35:05;19.10;95.30
71382;DHT22;60099;45.660;13.804;2022-09-27T16:37:33;19.00;95.20
71382;DHT22;60099;45.660;13.804;2022-09-27T16:39:59;19.00;95.60
71382;DHT22;60099;45.660;13.804;2022-09-27T16:42:25;19.00;95.70
71382;DHT22;60099;45.660;13.804;2022-09-27T16:44:52;18.90;95.40
71382;DHT22;60099;45.660;13.804;2022-09-27T16:47:18;19.00;95.70
71382;DHT22;60099;45.660;13.804;2022-09-27T16:49:44;18.90;95.00
71382;DHT22;60099;45.660;13.804;2022-09-27T16:52:29;18.90;95.30
71382;DHT22;60099;45.660;13.804;2022-09-27T16:54:59;18.90;94.70
71382;DHT22;60099;45.660;13.804;2022-09-27T16:57:25;18.90;94.60
71382;DHT22;60099;45.660;13.804;2022-09-27T16:59:53;18.90;94.30
71382;DHT22;60099;45.660;13.804;2022-09-27T17:02:21;18.80;94.10
71382;DHT22;60099;45.660;13.804;2022-09-27T17:04:49;18.90;94.50
71382;DHT22;60099;45.660;13.804;2022-09-27T17:07:15;18.90;94.30
71382;DHT22;60099;45.660;13.804;2022-09-27T17:09:40;18.80;94.30
71382;DHT22;60099;45.660;13.804;2022-09-27T17:12:06;18.90;94.10
71382;DHT22;60099;45.660;13.804;2022-09-27T17:14:32;18.80;93.70
71382;DHT22;60099;45.660;13.804;2022-09-27T17:16:57;18.80;92.70
71382;DHT22;60099;45.660;13.804;2022-09-27T17:19:23;18.80;91.90
71382;DHT22;60099;45.660;13.804;2022-09-27T17:21:49;18.70;91.50
71382;DHT22;60099;45.660;13.804;2022-09-27T17:24:16;18.60;91.10
71382;DHT22;60099;45.660;13.804;2022-09-27T17:26:42;18.50;90.50
71382;DHT22;60099;45.660;13.804;2022-09-27T17:29:11;18.50;90.20
71382;DHT22;60099;45.660;13.804;2022-09-27T17:31:38;18.50;90.10
71382;DHT22;60099;45.660;13.804;2022-09-27T17:34:12;18.40;90.30
71382;DHT22;60099;45.660;13.804;2022-09-27T17:36:41;18.30;90.40
71382;DHT22;60099;45.660;13.804;2022-09-27T17:39:18;18.20;90.40
71382;DHT22;60099;45.660;13.804;2022-09-27T17:41:46;18.20;90.20
71382;DHT22;60099;45.660;13.804;2022-09-27T17:44:14;18.20;90.20
71382;DHT22;60099;45.660;13.804;2022-09-27T17:46:40;18.20;90.50
71382;DHT22;60099;45.660;13.804;2022-09-27T17:49:06;18.00;90.10
71382;DHT22;60099;45.660;13.804;2022-09-27T17:51:52;18.00;88.30
71382;DHT22;60099;45.660;13.804;2022-09-27T17:54:20;17.90;88.00
71382;DHT22;60099;45.660;13.804;2022-09-27T17:56:47;17.80;87.50
71382;DHT22;60099;45.660;13.804;2022-09-27T17:59:15;17.80;87.00
71382;DHT22;60099;45.660;13.804;2022-09-27T18:01:42;17.70;86.30
71382;DHT22;60099;45.660;13.804;2022-09-27T18:04:10;17.60;85.40
71382;DHT22;60099;45.660;13.804;2022-09-27T18:06:38;17.50;85.40
71382;DHT22;60099;45.660;13.804;2022-09-27T18:09:05;17.40;83.80
71382;DHT22;60099;45.660;13.804;2022-09-27T18:11:33;17.50;83.20
71382;DHT22;60099;45.660;13.804;2022-09-27T18:13:58;17.50;82.50
71382;DHT22;60099;45.660;13.804;2022-09-27T18:16:26;17.50;82.20
71382;DHT22;60099;45.660;13.804;2022-09-27T18:18:55;17.40;83.00
71382;DHT22;60099;45.660;13.804;2022-09-27T18:21:21;17.30;82.50
71382;DHT22;60099;45.660;13.804;2022-09-27T18:23:49;17.30;82.40
71382;DHT22;60099;45.660;13.804;2022-09-27T18:26:19;17.30;83.00
71382;DHT22;60099;45.660;13.804;2022-09-27T18:28:54;17.20;82.90
71382;DHT22;60099;45.660;13.804;2022-09-27T18:31:30;17.20;82.90
71382;DHT22;60099;45.660;13.804;2022-09-27T18:33:56;17.20;83.20
71382;DHT22;60099;45.660;13.804;2022-09-27T18:36:26;17.20;82.70
71382;DHT22;60099;45.660;13.804;2022-09-27T18:38:57;17.10;83.00
71382;DHT22;60099;45.660;13.804;2022-09-27T18:41:25;17.00;83.40
71382;DHT22;60099;45.660;13.804;2022-09-27T18:43:59;17.00;83.20
71382;DHT22;60099;45.660;13.804;2022-09-27T18:46:27;17.10;83.10
71382;DHT22;60099;45.660;13.804;2022-09-27T18:48:54;17.00;84.00
71382;DHT22;60099;45.660;13.804;2022-09-27T18:51:23;16.90;84.50
71382;DHT22;60099;45.660;13.804;2022-09-27T18:54:00;16.90;83.90